createdAt,value
2022-11-05T00:02:27.701Z,6.10
2022-11-05T00:05:13.047Z,7.20
2022-11-05T00:08:00.254Z,6.00
2022-11-05T00:10:30.321Z,6.00
2022-11-05T00:13:17.947Z,6.53
2022-11-05T00:16:03.305Z,6.07
2022-11-05T00:18:31.058Z,6.57
2022-11-05T00:20:58.867Z,6.80
2022-11-05T00:23:44.263Z,6.10
2022-11-05T00:26:13.073Z,5.47
2022-11-05T00:28:43.854Z,3.57
2022-11-05T00:31:13.679Z,6.43
2022-11-05T00:33:42.877Z,5.40
2022-11-05T00:36:11.818Z,6.60
2022-11-05T00:38:39.552Z,5.70
2022-11-05T00:41:07.876Z,6.47
2022-11-05T00:43:53.216Z,5.80
2022-11-05T00:46:23.315Z,5.30
2022-11-05T00:49:08.682Z,5.97
2022-11-05T00:51:36.418Z,4.70
2022-11-05T00:54:04.680Z,6.10
2022-11-05T00:56:32.429Z,0.30
2022-11-05T00:59:00.145Z,0.30
2022-11-05T01:01:29.911Z,0.30
2022-11-05T01:03:57.729Z,0.30
2022-11-05T01:06:25.435Z,0.30
2022-11-05T01:08:53.174Z,0.30
2022-11-05T01:11:33.952Z,0.30
2022-11-05T01:14:02.272Z,0.30
2022-11-05T01:16:31.491Z,0.30
2022-11-05T01:18:59.233Z,0.30
2022-11-05T01:21:27.001Z,0.53
2022-11-05T01:23:54.985Z,0.50
2022-11-05T01:26:22.721Z,0.30
2022-11-05T01:28:51.931Z,0.30
2022-11-05T01:31:19.632Z,0.30
2022-11-05T01:33:49.022Z,0.30
2022-11-05T01:36:16.820Z,0.30
2022-11-05T01:38:44.554Z,0.30
2022-11-05T01:41:12.512Z,0.30
2022-11-05T01:43:49.162Z,0.30
2022-11-05T01:46:19.591Z,0.30
2022-11-05T01:48:50.004Z,0.40
2022-11-05T01:51:19.862Z,0.30
2022-11-05T01:53:50.010Z,0.30
2022-11-05T01:56:19.842Z,1.70
2022-11-05T01:58:50.037Z,1.13
2022-11-05T02:01:18.415Z,0.30
2022-11-05T02:03:48.228Z,0.30
2022-11-05T02:06:17.612Z,0.30
2022-11-05T02:08:52.873Z,0.30
2022-11-05T02:11:21.026Z,0.30
2022-11-05T02:13:49.665Z,0.30
2022-11-05T02:16:28.441Z,0.50
2022-11-05T02:19:00.966Z,0.40
2022-11-05T02:21:57.273Z,0.30
2022-11-05T02:25:00.590Z,0.30
2022-11-05T02:27:57.616Z,0.30
2022-11-05T02:30:36.625Z,0.30
2022-11-05T02:33:24.448Z,0.30
2022-11-05T02:36:03.376Z,0.30
2022-11-05T02:38:38.881Z,0.30
2022-11-05T02:41:11.469Z,0.30
2022-11-05T02:43:48.190Z,0.57
2022-11-05T02:46:26.756Z,1.10
2022-11-05T02:48:59.335Z,0.30
2022-11-05T02:51:32.593Z,0.30
2022-11-05T02:54:06.088Z,0.30
2022-11-05T02:56:35.109Z,0.30
2022-11-05T02:59:03.338Z,0.30
2022-11-05T03:01:32.467Z,0.30
2022-11-05T03:04:01.838Z,0.30
2022-11-05T03:06:56.149Z,0.30
2022-11-05T03:10:01.796Z,0.30
2022-11-05T03:12:34.676Z,0.30
2022-11-05T03:15:10.431Z,0.30
2022-11-05T03:17:45.728Z,0.30
2022-11-05T03:20:19.899Z,0.30
2022-11-05T03:22:52.246Z,0.30
2022-11-05T03:25:22.950Z,0.30
2022-11-05T03:27:54.038Z,0.30
2022-11-05T03:30:22.027Z,0.30
2022-11-05T03:32:53.329Z,0.30
2022-11-05T03:35:24.114Z,0.30
2022-11-05T03:37:55.593Z,0.30
2022-11-05T03:40:24.804Z,0.30
2022-11-05T03:42:57.786Z,0.30
2022-11-05T03:45:28.027Z,0.30
2022-11-05T03:47:59.100Z,0.30
2022-11-05T03:50:35.895Z,0.30
2022-11-05T03:53:15.076Z,0.30
2022-11-05T03:55:48.768Z,0.30
2022-11-05T03:58:16.866Z,0.30
2022-11-05T04:00:44.524Z,0.30
2022-11-05T04:03:13.858Z,0.30
2022-11-05T04:05:41.829Z,0.30
2022-11-05T04:08:27.867Z,0.30
2022-11-05T04:11:13.031Z,0.30
2022-11-05T04:13:40.860Z,0.30
2022-11-05T04:16:26.546Z,0.30
2022-11-05T04:18:55.784Z,0.33
2022-11-05T04:21:37.394Z,0.30
2022-11-05T04:24:11.744Z,0.30
2022-11-05T04:26:40.998Z,2.30
2022-11-05T04:29:26.556Z,0.30
2022-11-05T04:31:54.347Z,0.30
2022-11-05T04:34:23.441Z,0.30
2022-11-05T04:36:52.015Z,0.30
2022-11-05T04:39:20.650Z,0.30
2022-11-05T04:41:49.038Z,0.30
2022-11-05T04:44:17.144Z,0.30
2022-11-05T04:46:44.960Z,0.30
2022-11-05T04:49:12.690Z,0.30
2022-11-05T04:51:41.750Z,0.30
2022-11-05T04:54:09.457Z,0.30
2022-11-05T04:56:37.180Z,0.30
2022-11-05T04:59:04.894Z,0.30
2022-11-05T05:01:32.724Z,0.30
2022-11-05T05:04:00.548Z,0.30
2022-11-05T05:06:28.534Z,0.40
2022-11-05T05:08:57.746Z,0.30
2022-11-05T05:11:25.492Z,0.30
2022-11-05T05:13:53.210Z,0.30
2022-11-05T05:16:22.310Z,0.30
2022-11-05T05:18:50.294Z,0.30
2022-11-05T05:21:36.945Z,0.30
2022-11-05T05:24:08.585Z,0.47
2022-11-05T05:26:36.881Z,0.30
2022-11-05T05:29:05.218Z,0.30
2022-11-05T05:31:33.213Z,0.30
2022-11-05T05:34:00.910Z,0.30
2022-11-05T05:36:28.798Z,0.30
2022-11-05T05:38:56.532Z,0.30
2022-11-05T05:41:25.949Z,0.30
2022-11-05T05:43:53.689Z,0.30
2022-11-05T05:46:21.364Z,0.30
2022-11-05T05:48:50.188Z,0.30
2022-11-05T05:51:18.376Z,0.30
2022-11-05T05:53:46.372Z,0.30
2022-11-05T05:56:19.117Z,0.30
2022-11-05T05:58:48.467Z,0.30
2022-11-05T06:01:19.359Z,0.30
2022-11-05T06:03:48.198Z,0.30
2022-11-05T06:06:20.894Z,0.30
2022-11-05T06:08:48.849Z,0.30
2022-11-05T06:11:16.783Z,0.30
2022-11-05T06:13:44.533Z,0.30
2022-11-05T06:16:13.581Z,0.30
2022-11-05T06:18:41.392Z,0.30
2022-11-05T06:21:10.659Z,0.30
2022-11-05T06:23:39.510Z,0.40
2022-11-05T06:26:09.258Z,0.30
2022-11-05T06:28:37.020Z,0.40
2022-11-05T06:31:04.960Z,0.30
2022-11-05T06:33:33.997Z,0.30
2022-11-05T06:36:02.516Z,0.30
2022-11-05T06:38:33.280Z,0.30
2022-11-05T06:41:04.568Z,0.30
2022-11-05T06:43:35.108Z,0.30
2022-11-05T06:46:03.670Z,0.30
2022-11-05T06:48:31.401Z,0.30
2022-11-05T06:51:00.612Z,0.30
2022-11-05T06:53:30.538Z,0.30
2022-11-05T06:55:58.387Z,0.30
2022-11-05T06:58:26.766Z,0.30
2022-11-05T07:00:54.785Z,0.30
2022-11-05T07:03:22.873Z,0.30
2022-11-05T07:05:51.092Z,0.30
2022-11-05T07:08:20.298Z,0.30
2022-11-05T07:10:47.999Z,0.30
2022-11-05T07:13:16.280Z,0.30
2022-11-05T07:15:45.523Z,0.30
2022-11-05T07:18:13.359Z,0.30
2022-11-05T07:20:41.070Z,0.30
2022-11-05T07:23:12.258Z,0.30
2022-11-05T07:25:42.375Z,0.30
2022-11-05T07:28:10.539Z,0.30
2022-11-05T07:30:38.434Z,0.30
2022-11-05T07:33:06.198Z,0.30
2022-11-05T07:35:34.190Z,0.30
2022-11-05T07:38:01.923Z,0.30
2022-11-05T07:40:30.480Z,0.30
2022-11-05T07:43:01.945Z,0.30
2022-11-05T07:45:31.416Z,0.33
2022-11-05T07:48:00.504Z,0.30
2022-11-05T07:50:31.397Z,0.30
2022-11-05T07:53:02.267Z,0.30
2022-11-05T07:55:30.607Z,0.30
2022-11-05T07:57:59.971Z,0.30
2022-11-05T08:00:28.595Z,0.30
2022-11-05T08:03:07.303Z,0.30
2022-11-05T08:05:37.555Z,0.30
2022-11-05T08:08:06.154Z,0.30
2022-11-05T08:10:34.039Z,0.30
2022-11-05T08:13:03.379Z,0.30
2022-11-05T08:15:31.585Z,0.50
2022-11-05T08:17:59.667Z,0.30
2022-11-05T08:20:27.374Z,0.30
2022-11-05T08:22:56.087Z,0.30
2022-11-05T08:25:24.536Z,0.30
2022-11-05T08:27:56.928Z,0.30
2022-11-05T08:30:26.454Z,0.30
2022-11-05T08:32:57.581Z,0.30
2022-11-05T08:35:25.485Z,0.30
2022-11-05T08:37:57.368Z,0.30
2022-11-05T08:40:25.807Z,0.30
2022-11-05T08:42:54.074Z,0.30
2022-11-05T08:45:21.770Z,0.30
2022-11-05T08:47:50.876Z,0.60
2022-11-05T08:50:18.813Z,0.30
2022-11-05T08:52:46.567Z,0.30
2022-11-05T08:55:14.267Z,0.30
2022-11-05T08:57:41.970Z,0.30
2022-11-05T09:00:11.287Z,0.30
2022-11-05T09:02:39.127Z,0.30
2022-11-05T09:05:09.230Z,0.30
2022-11-05T09:07:36.923Z,0.30
2022-11-05T09:10:05.021Z,0.30
2022-11-05T09:12:32.762Z,0.30
2022-11-05T09:15:03.797Z,0.30
2022-11-05T09:17:31.563Z,0.30
2022-11-05T09:19:59.275Z,0.30
2022-11-05T09:22:28.315Z,0.30
2022-11-05T09:24:56.032Z,0.30
2022-11-05T09:27:23.741Z,0.30
2022-11-05T09:29:51.450Z,0.30
2022-11-05T09:32:20.917Z,0.30
2022-11-05T09:34:49.009Z,0.30
2022-11-05T09:37:16.763Z,0.30
2022-11-05T09:39:45.879Z,0.30
2022-11-05T09:42:16.743Z,0.30
2022-11-05T09:44:47.575Z,0.40
2022-11-05T09:47:18.345Z,0.30
2022-11-05T09:49:50.073Z,0.30
2022-11-05T09:52:21.971Z,0.30
2022-11-05T09:54:51.505Z,0.30
2022-11-05T09:57:23.336Z,0.30
2022-11-05T09:59:53.301Z,0.30
2022-11-05T10:02:24.474Z,0.30
2022-11-05T10:04:57.113Z,0.30
2022-11-05T10:07:28.051Z,0.30
2022-11-05T10:10:00.521Z,2.17
2022-11-05T10:12:31.734Z,2.20
2022-11-05T10:15:08.507Z,2.13
2022-11-05T10:17:39.195Z,1.90
2022-11-05T10:20:11.662Z,2.50
2022-11-05T10:22:39.785Z,1.97
2022-11-05T10:25:18.113Z,1.80
2022-11-05T10:27:49.147Z,2.63
2022-11-05T10:30:17.102Z,1.93
2022-11-05T10:32:45.965Z,1.80
2022-11-05T10:35:18.387Z,1.87
2022-11-05T10:37:47.472Z,2.23
2022-11-05T10:40:21.074Z,1.40
2022-11-05T10:42:55.531Z,2.07
2022-11-05T10:45:29.770Z,1.30
2022-11-05T10:48:06.750Z,0.93
2022-11-05T10:50:34.916Z,1.43
2022-11-05T10:53:07.832Z,1.87
2022-11-05T10:55:38.761Z,1.70
2022-11-05T10:58:11.933Z,1.47
2022-11-05T11:00:39.780Z,1.30
2022-11-05T11:03:33.297Z,1.00
2022-11-05T11:06:02.872Z,1.70
2022-11-05T11:08:31.971Z,1.90
2022-11-05T11:11:04.176Z,1.63
2022-11-05T11:13:49.805Z,3.33
2022-11-05T11:16:21.332Z,1.67
2022-11-05T11:18:54.323Z,1.23
2022-11-05T11:21:26.140Z,0.80
2022-11-05T11:23:58.228Z,2.93
2022-11-05T11:26:29.922Z,1.97
2022-11-05T11:29:00.581Z,1.20
2022-11-05T11:31:30.440Z,1.47
2022-11-05T11:34:01.796Z,1.60
2022-11-05T11:36:34.705Z,0.90
2022-11-05T11:39:04.282Z,0.90
2022-11-05T11:41:36.095Z,1.43
2022-11-05T11:44:07.790Z,1.10
2022-11-05T11:46:36.494Z,0.70
2022-11-05T11:49:05.266Z,1.15
2022-11-05T11:51:36.681Z,0.63
2022-11-05T11:54:05.399Z,1.00
2022-11-05T11:56:44.619Z,0.90
2022-11-05T11:59:30.814Z,0.80
2022-11-05T12:02:45.071Z,0.80
2022-11-05T12:05:24.835Z,1.13
2022-11-05T12:07:54.418Z,1.00
2022-11-05T12:10:35.020Z,1.47
2022-11-05T12:13:33.515Z,1.23
2022-11-05T12:16:08.699Z,2.03
2022-11-05T12:18:42.354Z,1.10
2022-11-05T12:21:29.484Z,1.30
2022-11-05T12:24:37.698Z,1.17
2022-11-05T12:27:17.202Z,1.00
2022-11-05T12:29:56.557Z,0.63
2022-11-05T12:32:38.496Z,0.97
2022-11-05T12:35:15.260Z,1.27
2022-11-05T12:37:50.033Z,0.70
2022-11-05T12:40:38.165Z,0.70
2022-11-05T12:43:15.744Z,0.70
2022-11-05T12:45:48.455Z,1.10
2022-11-05T12:48:43.125Z,1.30
2022-11-05T12:51:20.705Z,0.90
2022-11-05T12:53:59.946Z,1.23
2022-11-05T12:56:33.355Z,0.93
2022-11-05T12:59:04.436Z,1.40
2022-11-05T13:01:34.989Z,1.43
2022-11-05T13:04:08.799Z,0.97
2022-11-05T13:06:40.284Z,0.90
2022-11-05T13:09:12.195Z,1.10
2022-11-05T13:11:44.568Z,1.10
2022-11-05T13:14:16.130Z,0.90
2022-11-05T13:16:46.331Z,0.87
2022-11-05T13:19:22.748Z,0.90
2022-11-05T13:21:54.283Z,0.83
2022-11-05T13:24:24.897Z,1.07
2022-11-05T13:26:55.116Z,1.20
2022-11-05T13:29:29.062Z,0.93
2022-11-05T13:31:59.942Z,1.03
2022-11-05T13:34:33.427Z,0.93
2022-11-05T13:37:23.834Z,2.47
2022-11-05T13:39:54.499Z,0.77
2022-11-05T13:42:52.641Z,0.83
2022-11-05T13:45:38.134Z,1.40
2022-11-05T13:48:30.782Z,1.80
2022-11-05T13:51:13.221Z,1.17
2022-11-05T13:53:56.725Z,1.47
2022-11-05T13:56:39.005Z,0.90
2022-11-05T13:59:38.208Z,1.10
2022-11-05T14:02:14.928Z,1.20
2022-11-05T14:04:47.371Z,1.90
2022-11-05T14:07:21.252Z,1.17
2022-11-05T14:09:54.752Z,1.27
2022-11-05T14:12:26.679Z,0.93
2022-11-05T14:15:01.760Z,2.10
2022-11-05T14:17:33.869Z,1.43
2022-11-05T14:20:55.535Z,1.27
2022-11-05T14:23:51.741Z,1.07
2022-11-05T14:26:23.127Z,2.03
2022-11-05T14:29:09.894Z,1.23
2022-11-05T14:34:46.988Z,1.50
2022-11-05T14:37:26.508Z,1.30
2022-11-05T14:39:56.794Z,1.00
2022-11-05T14:42:27.773Z,1.60
2022-11-05T14:45:11.151Z,1.53
2022-11-05T14:47:41.514Z,1.80
2022-11-05T14:50:12.899Z,1.33
2022-11-05T14:52:41.678Z,1.77
2022-11-05T14:55:26.624Z,1.33
2022-11-05T14:58:28.695Z,2.00
2022-11-05T15:00:57.094Z,1.60
2022-11-05T15:03:41.126Z,1.57
2022-11-05T15:06:25.241Z,2.47
2022-11-05T15:08:58.833Z,3.20
2022-11-05T15:11:33.461Z,2.10
2022-11-05T15:14:05.955Z,3.00
2022-11-05T15:16:36.879Z,2.97
2022-11-05T15:19:06.429Z,3.90
2022-11-05T15:21:35.713Z,1.70
2022-11-05T15:24:04.259Z,2.80
2022-11-05T15:26:39.546Z,3.07
2022-11-05T15:29:17.163Z,3.83
2022-11-05T15:31:45.417Z,2.23
2022-11-05T15:34:21.847Z,1.70
2022-11-05T15:36:55.434Z,2.10
2022-11-05T15:39:31.057Z,2.67
2022-11-05T15:42:04.491Z,2.17
2022-11-05T15:44:34.694Z,2.60
2022-11-05T15:47:12.791Z,2.83
2022-11-05T15:49:40.655Z,3.20
2022-11-05T15:52:10.924Z,2.67
2022-11-05T15:54:38.975Z,3.00
2022-11-05T15:57:18.655Z,2.70
2022-11-05T15:59:47.457Z,2.27
2022-11-05T16:02:26.655Z,2.70
2022-11-05T16:04:54.473Z,2.77
2022-11-05T16:07:22.360Z,2.50
2022-11-05T16:09:55.089Z,2.63
2022-11-05T16:12:29.008Z,2.37
2022-11-05T16:15:20.955Z,2.63
2022-11-05T16:17:52.952Z,3.00
2022-11-05T16:20:32.024Z,4.83
2022-11-05T16:23:01.818Z,3.73
2022-11-05T16:25:38.926Z,2.90
2022-11-05T16:28:21.312Z,3.00
2022-11-05T16:30:56.799Z,2.97
2022-11-05T16:33:25.226Z,2.70
2022-11-05T16:35:53.124Z,2.40
2022-11-05T16:38:21.266Z,2.90
2022-11-05T16:40:49.006Z,2.20
2022-11-05T16:43:21.558Z,2.03
2022-11-05T16:45:49.787Z,2.57
2022-11-05T16:48:17.535Z,2.73
2022-11-05T16:50:46.178Z,2.30
2022-11-05T16:53:13.934Z,4.40
2022-11-05T16:55:43.258Z,2.67
2022-11-05T16:58:18.477Z,3.30
2022-11-05T17:00:48.169Z,3.93
2022-11-05T17:03:15.934Z,3.03
2022-11-05T17:05:44.099Z,4.53
2022-11-05T17:08:12.195Z,4.20
2022-11-05T17:10:40.253Z,4.43
2022-11-05T17:13:08.080Z,5.57
2022-11-05T17:15:35.964Z,3.70
2022-11-05T17:18:06.118Z,4.70
2022-11-05T17:20:40.809Z,4.07
2022-11-05T17:23:10.290Z,3.73
2022-11-05T17:25:38.938Z,3.50
2022-11-05T17:28:06.895Z,3.37
2022-11-05T17:30:34.760Z,2.63
2022-11-05T17:33:02.568Z,8.70
2022-11-05T17:35:31.933Z,5.00
2022-11-05T17:37:59.665Z,5.20
2022-11-05T17:40:28.730Z,4.40
2022-11-05T17:42:56.478Z,3.43
2022-11-05T17:45:24.177Z,4.73
2022-11-05T17:47:51.973Z,4.37
2022-11-05T17:50:19.743Z,4.70
2022-11-05T17:52:48.861Z,5.77
2022-11-05T17:55:19.287Z,4.33
2022-11-05T17:57:48.382Z,3.70
2022-11-05T18:00:17.188Z,4.40
2022-11-05T18:02:46.084Z,3.50
2022-11-05T18:05:14.327Z,3.93
2022-11-05T18:07:42.494Z,4.03
2022-11-05T18:10:11.715Z,3.70
2022-11-05T18:12:39.844Z,3.40
2022-11-05T18:15:08.413Z,4.80
2022-11-05T18:17:36.716Z,3.43
2022-11-05T18:20:04.899Z,3.50
2022-11-05T18:22:32.666Z,3.57
2022-11-05T18:25:00.404Z,4.20
2022-11-05T18:27:29.762Z,3.83
2022-11-05T18:29:57.435Z,3.67
2022-11-05T18:32:25.469Z,4.13
2022-11-05T18:34:53.204Z,3.67
2022-11-05T18:37:21.146Z,3.47
2022-11-05T18:39:51.555Z,3.77
2022-11-05T18:42:19.522Z,4.07
2022-11-05T18:44:49.417Z,3.70
2022-11-05T18:47:17.217Z,4.47
2022-11-05T18:49:44.928Z,4.60
2022-11-05T18:52:13.137Z,4.57
2022-11-05T18:54:40.939Z,5.10
2022-11-05T18:57:08.650Z,5.50
2022-11-05T18:59:39.168Z,4.57
2022-11-05T19:02:09.429Z,5.53
2022-11-05T19:04:37.817Z,6.10
2022-11-05T19:07:06.046Z,5.40
2022-11-05T19:09:34.123Z,5.37
2022-11-05T19:12:01.978Z,4.80
2022-11-05T19:14:30.659Z,5.17
2022-11-05T19:16:58.489Z,5.60
2022-11-05T19:19:27.689Z,5.63
2022-11-05T19:21:55.456Z,5.63
2022-11-05T19:24:23.228Z,5.57
2022-11-05T19:26:50.916Z,5.47
2022-11-05T19:29:18.840Z,4.93
2022-11-05T19:31:46.626Z,4.70
2022-11-05T19:34:14.766Z,5.10
2022-11-05T19:36:44.153Z,4.93
2022-11-05T19:39:14.278Z,4.20
2022-11-05T19:41:42.179Z,4.27
2022-11-05T19:44:10.211Z,5.13
2022-11-05T19:46:38.510Z,4.67
2022-11-05T19:49:06.301Z,4.70
2022-11-05T19:51:34.274Z,5.70
2022-11-05T19:54:04.675Z,6.30
2022-11-05T19:56:34.053Z,6.10
2022-11-05T19:59:03.080Z,7.50
2022-11-05T20:01:31.499Z,7.20
2022-11-05T20:04:00.198Z,8.00
2022-11-05T20:06:32.232Z,36.60
2022-11-05T20:11:53.706Z,6.70
2022-11-05T20:14:21.562Z,8.67
2022-11-05T20:16:49.687Z,8.67
2022-11-05T20:19:19.633Z,7.63
2022-11-05T20:21:47.567Z,8.70
2022-11-05T20:24:24.088Z,8.77
2022-11-05T20:26:53.886Z,7.43
2022-11-05T20:29:22.227Z,7.70
2022-11-05T20:31:50.345Z,8.00
2022-11-05T20:34:18.063Z,8.00
2022-11-05T20:36:45.777Z,8.43
2022-11-05T20:39:13.498Z,7.90
2022-11-05T20:41:42.654Z,8.37
2022-11-05T20:44:10.802Z,7.27
2022-11-05T20:46:38.630Z,7.87
2022-11-05T20:49:06.462Z,8.27
2022-11-05T20:51:34.154Z,6.73
2022-11-05T20:54:02.971Z,7.13
2022-11-05T20:56:32.596Z,8.20
2022-11-05T20:59:02.664Z,6.37
2022-11-05T21:01:32.601Z,6.23
2022-11-05T21:04:00.631Z,7.23
2022-11-05T21:06:28.934Z,7.60
2022-11-05T21:08:58.622Z,6.43
2022-11-05T21:11:29.402Z,5.93
2022-11-05T21:13:57.143Z,5.50
2022-11-05T21:16:26.233Z,6.00
2022-11-05T21:18:53.919Z,6.00
2022-11-05T21:21:21.873Z,5.40
2022-11-05T21:23:49.583Z,5.10
2022-11-05T21:26:18.613Z,5.80
2022-11-05T21:28:46.589Z,4.40
2022-11-05T21:31:14.376Z,5.20
2022-11-05T21:33:43.466Z,4.50
2022-11-05T21:36:13.313Z,4.50
2022-11-05T21:38:41.540Z,4.50
2022-11-05T21:41:11.213Z,4.90
2022-11-05T21:43:39.414Z,4.37
2022-11-05T21:46:07.169Z,4.47
2022-11-05T21:48:34.923Z,5.40
2022-11-05T21:51:21.999Z,5.37
2022-11-05T21:54:03.732Z,4.90
2022-11-05T21:56:49.266Z,4.53
2022-11-05T21:59:36.214Z,4.07
2022-11-05T22:02:04.554Z,3.60
2022-11-05T22:04:34.867Z,4.50
2022-11-05T22:07:04.589Z,4.83
2022-11-05T22:09:33.147Z,5.00
2022-11-05T22:12:01.816Z,4.83
2022-11-05T22:14:30.037Z,4.40
2022-11-05T22:16:58.254Z,4.33
2022-11-05T22:19:26.377Z,4.13
2022-11-05T22:21:54.184Z,4.53
2022-11-05T22:24:23.671Z,3.80
2022-11-05T22:26:51.625Z,4.80
2022-11-05T22:29:19.382Z,4.03
2022-11-05T22:31:47.076Z,4.50
2022-11-05T22:34:14.821Z,4.20
2022-11-05T22:36:42.572Z,4.00
2022-11-05T22:39:11.088Z,4.03
2022-11-05T22:41:40.565Z,9.90
2022-11-05T22:44:08.286Z,5.10
2022-11-05T22:46:36.015Z,4.57
2022-11-05T22:49:04.151Z,4.30
2022-11-05T22:51:33.980Z,4.90
2022-11-05T22:54:01.959Z,4.83
2022-11-05T22:56:31.303Z,4.83
2022-11-05T22:59:00.840Z,4.77
2022-11-05T23:01:28.858Z,5.00
2022-11-05T23:03:58.579Z,4.90
2022-11-05T23:06:45.548Z,4.47
2022-11-05T23:09:35.016Z,5.10
2022-11-05T23:12:04.463Z,4.37
2022-11-05T23:14:33.725Z,3.83
2022-11-05T23:17:19.148Z,4.00
2022-11-05T23:20:04.772Z,4.60
2022-11-05T23:22:50.612Z,4.00
2022-11-05T23:25:20.579Z,3.70
2022-11-05T23:27:49.658Z,4.50
2022-11-05T23:30:20.113Z,4.37
2022-11-05T23:32:46.931Z,5.00
2022-11-05T23:35:14.846Z,4.13
2022-11-05T23:37:59.941Z,3.37
2022-11-05T23:40:29.547Z,3.43
2022-11-05T23:43:14.686Z,4.07
2022-11-05T23:46:03.332Z,4.00
2022-11-05T23:48:32.797Z,4.80
2022-11-05T23:51:03.025Z,4.67
2022-11-05T23:53:32.148Z,4.90
2022-11-05T23:56:02.236Z,4.90
2022-11-05T23:58:30.140Z,5.13
